createdAt,value
2019-05-22T00:00:31.326Z,12.57
2019-05-22T00:03:03.338Z,12.55
2019-05-22T00:05:38.148Z,12.56
2019-05-22T00:08:13.364Z,12.52
2019-05-22T00:10:46.251Z,12.38
2019-05-22T00:13:18.646Z,12.40
2019-05-22T00:15:50.136Z,12.39
2019-05-22T00:18:21.519Z,12.37
2019-05-22T00:20:51.518Z,12.34
2019-05-22T00:23:22.716Z,12.28
2019-05-22T00:25:54.445Z,12.29
2019-05-22T00:28:25.526Z,12.31
2019-05-22T00:30:57.416Z,12.32
2019-05-22T00:33:27.468Z,12.30
2019-05-22T00:35:59.566Z,12.25
2019-05-22T00:38:31.673Z,12.31
2019-05-22T00:41:03.294Z,12.29
2019-05-22T00:43:34.967Z,12.30
2019-05-22T00:46:05.411Z,12.34
2019-05-22T00:48:36.768Z,12.19
2019-05-22T00:51:10.237Z,12.16
2019-05-22T00:53:44.346Z,12.14
2019-05-22T00:56:17.017Z,12.16
2019-05-22T00:58:50.327Z,12.12
2019-05-22T01:01:22.243Z,12.05
2019-05-22T01:03:53.761Z,12.10
2019-05-22T01:06:25.727Z,12.08
2019-05-22T01:08:56.824Z,12.07
2019-05-22T01:11:29.069Z,12.02
2019-05-22T01:14:01.500Z,12.04
2019-05-22T01:16:32.924Z,12.02
2019-05-22T01:19:03.318Z,11.96
2019-05-22T01:21:33.764Z,11.95
2019-05-22T01:24:04.600Z,11.87
2019-05-22T01:26:36.000Z,11.81
2019-05-22T01:29:08.394Z,11.79
2019-05-22T01:31:40.490Z,11.78
2019-05-22T01:34:16.208Z,11.80
2019-05-22T01:36:47.319Z,11.81
2019-05-22T01:39:30.805Z,11.75
2019-05-22T01:42:02.823Z,11.76
2019-05-22T01:44:34.725Z,11.79
2019-05-22T01:47:09.298Z,11.78
2019-05-22T01:49:43.779Z,11.78
2019-05-22T01:52:15.482Z,11.69
2019-05-22T01:54:46.627Z,11.73
2019-05-22T01:57:18.045Z,11.67
2019-05-22T01:59:48.111Z,11.69
2019-05-22T02:02:19.443Z,11.66
2019-05-22T02:04:49.237Z,11.69
2019-05-22T02:07:20.793Z,11.65
2019-05-22T02:09:52.461Z,11.66
2019-05-22T02:12:26.906Z,11.64
2019-05-22T02:14:58.324Z,11.62
2019-05-22T02:17:31.905Z,11.60
2019-05-22T02:20:02.404Z,11.57
2019-05-22T02:22:32.326Z,11.58
2019-05-22T02:25:02.885Z,11.61
2019-05-22T02:27:34.350Z,11.55
2019-05-22T02:30:05.745Z,11.48
2019-05-22T02:32:37.948Z,11.47
2019-05-22T02:35:09.398Z,11.41
2019-05-22T02:37:41.264Z,11.40
2019-05-22T02:40:23.929Z,11.49
2019-05-22T02:42:54.498Z,11.43
2019-05-22T02:45:25.607Z,11.44
2019-05-22T02:47:57.214Z,11.45
2019-05-22T02:50:27.804Z,11.44
2019-05-22T02:52:59.314Z,11.39
2019-05-22T02:55:29.036Z,11.42
2019-05-22T02:57:59.310Z,11.37
2019-05-22T03:00:33.781Z,11.36
2019-05-22T03:03:06.256Z,11.38
2019-05-22T03:05:37.672Z,11.41
2019-05-22T03:08:09.614Z,11.32
2019-05-22T03:10:39.422Z,11.29
2019-05-22T03:13:11.081Z,11.33
2019-05-22T03:15:42.440Z,11.38
2019-05-22T03:18:13.918Z,11.34
2019-05-22T03:20:43.720Z,11.23
2019-05-22T03:23:33.636Z,11.35
2019-05-22T03:26:04.415Z,11.38
2019-05-22T03:28:35.123Z,11.35
2019-05-22T03:31:07.036Z,11.32
2019-05-22T03:33:37.303Z,11.35
2019-05-22T03:36:16.175Z,11.37
2019-05-22T03:38:46.918Z,11.39
2019-05-22T03:41:18.622Z,11.38
2019-05-22T03:43:50.886Z,11.29
2019-05-22T03:46:23.771Z,11.36
2019-05-22T03:48:56.824Z,11.39
2019-05-22T03:51:26.774Z,11.34
2019-05-22T03:53:57.272Z,11.36
2019-05-22T03:56:27.129Z,11.34
2019-05-22T03:58:57.360Z,11.37
2019-05-22T04:01:28.947Z,11.29
2019-05-22T04:03:59.780Z,11.40
2019-05-22T04:06:29.775Z,11.37
2019-05-22T04:09:02.615Z,11.41
2019-05-22T04:11:38.850Z,11.44
2019-05-22T04:14:08.871Z,11.36
2019-05-22T04:16:38.886Z,11.38
2019-05-22T04:19:09.742Z,11.33
2019-05-22T04:21:39.623Z,11.26
2019-05-22T04:24:09.852Z,11.27
2019-05-22T04:26:39.794Z,11.33
2019-05-22T04:29:09.799Z,11.27
2019-05-22T04:31:46.181Z,11.32
2019-05-22T04:34:16.105Z,11.34
2019-05-22T04:36:47.035Z,11.36
2019-05-22T04:39:22.275Z,11.29
2019-05-22T04:41:52.845Z,11.33
2019-05-22T04:44:22.947Z,11.29
2019-05-22T04:46:52.855Z,11.32
2019-05-22T04:49:22.725Z,11.24
2019-05-22T04:51:52.719Z,11.22
2019-05-22T04:54:22.485Z,11.26
2019-05-22T04:56:53.607Z,11.21
2019-05-22T04:59:24.205Z,11.19
2019-05-22T05:01:54.054Z,11.12
2019-05-22T05:04:24.298Z,11.19
2019-05-22T05:06:54.859Z,11.21
2019-05-22T05:09:25.413Z,11.24
2019-05-22T05:11:55.719Z,11.24
2019-05-22T05:14:26.321Z,11.12
2019-05-22T05:16:56.594Z,11.15
2019-05-22T05:19:27.274Z,11.14
2019-05-22T05:21:57.186Z,11.19
2019-05-22T05:24:27.016Z,11.21
2019-05-22T05:26:58.019Z,11.18
2019-05-22T05:29:29.608Z,11.16
2019-05-22T05:32:00.554Z,11.16
2019-05-22T05:34:39.585Z,11.22
2019-05-22T05:37:10.306Z,11.23
2019-05-22T05:39:44.155Z,11.21
2019-05-22T05:42:13.919Z,11.20
2019-05-22T05:44:43.814Z,11.20
2019-05-22T05:47:19.176Z,11.13
2019-05-22T05:49:50.562Z,11.16
2019-05-22T05:52:21.248Z,11.14
2019-05-22T05:54:51.685Z,11.21
2019-05-22T05:57:40.742Z,11.22
2019-05-22T06:00:33.248Z,11.23
2019-05-22T06:03:36.042Z,11.19
2019-05-22T06:06:25.127Z,11.13
2019-05-22T06:08:56.780Z,11.08
2019-05-22T06:11:42.788Z,11.13
2019-05-22T06:14:21.461Z,11.13
2019-05-22T06:17:07.816Z,11.20
2019-05-22T06:19:43.873Z,11.17
2019-05-22T06:22:15.121Z,11.20
2019-05-22T06:25:01.484Z,11.17
2019-05-22T06:27:43.720Z,11.08
2019-05-22T06:30:17.674Z,11.10
2019-05-22T06:33:13.248Z,11.12
2019-05-22T06:35:46.063Z,11.10
2019-05-22T06:38:19.142Z,11.10
2019-05-22T06:40:49.310Z,11.14
2019-05-22T06:43:25.775Z,11.13
2019-05-22T06:46:01.377Z,11.03
2019-05-22T06:48:31.097Z,11.06
2019-05-22T06:51:00.930Z,11.15
2019-05-22T06:53:30.695Z,11.17
2019-05-22T06:56:00.489Z,11.07
2019-05-22T06:58:31.153Z,11.16
2019-05-22T07:01:01.180Z,11.07
2019-05-22T07:03:33.086Z,11.14
2019-05-22T07:06:03.981Z,11.16
2019-05-22T07:08:33.898Z,11.13
2019-05-22T07:11:04.589Z,11.17
2019-05-22T07:13:35.587Z,11.21
2019-05-22T07:16:06.167Z,11.19
2019-05-22T07:18:36.359Z,11.21
2019-05-22T07:21:06.695Z,11.19
2019-05-22T07:23:37.221Z,11.15
2019-05-22T07:26:08.382Z,11.26
2019-05-22T07:28:38.784Z,11.28
2019-05-22T07:31:08.568Z,11.26
2019-05-22T07:33:38.333Z,11.35
2019-05-22T07:36:12.122Z,11.29
2019-05-22T07:38:40.338Z,11.25
2019-05-22T07:41:10.445Z,11.29
2019-05-22T07:43:41.900Z,11.30
2019-05-22T07:46:12.044Z,11.29
2019-05-22T07:48:46.270Z,11.24
2019-05-22T07:51:17.512Z,11.35
2019-05-22T07:53:47.476Z,11.25
2019-05-22T07:56:18.470Z,11.32
2019-05-22T07:58:48.821Z,11.37
2019-05-22T08:01:20.396Z,11.32
2019-05-22T08:03:50.874Z,11.30
2019-05-22T08:06:21.835Z,11.29
2019-05-22T08:08:54.066Z,11.18
2019-05-22T08:11:26.271Z,11.23
2019-05-22T08:13:57.342Z,11.24
2019-05-22T08:16:28.381Z,11.31
2019-05-22T08:18:58.120Z,11.30
2019-05-22T08:21:28.272Z,11.30
2019-05-22T08:23:59.019Z,11.27
2019-05-22T08:26:29.766Z,11.33
2019-05-22T08:29:01.710Z,11.35
2019-05-22T08:31:32.247Z,11.37
2019-05-22T08:34:03.056Z,11.47
2019-05-22T08:36:33.196Z,11.24
2019-05-22T08:39:03.827Z,11.33
2019-05-22T08:41:37.156Z,11.17
2019-05-22T08:44:17.585Z,11.26
2019-05-22T08:46:40.215Z,11.29
2019-05-22T08:49:10.369Z,11.21
2019-05-22T08:51:40.059Z,11.26
2019-05-22T08:54:10.106Z,11.27
2019-05-22T08:56:42.854Z,11.27
2019-05-22T08:59:19.470Z,11.35
2019-05-22T09:01:46.505Z,11.34
2019-05-22T09:04:16.526Z,11.38
2019-05-22T09:06:46.835Z,11.41
2019-05-22T09:09:17.150Z,11.36
2019-05-22T09:11:46.840Z,11.45
2019-05-22T09:14:16.619Z,11.47
2019-05-22T09:16:48.149Z,11.35
2019-05-22T09:19:18.129Z,11.35
2019-05-22T09:21:48.251Z,11.36
2019-05-22T09:24:19.682Z,11.40
2019-05-22T09:26:49.484Z,11.36
2019-05-22T09:29:19.305Z,11.35
2019-05-22T09:31:49.237Z,11.31
2019-05-22T09:34:19.394Z,11.41
2019-05-22T09:36:49.176Z,11.31
2019-05-22T09:39:19.806Z,11.39
2019-05-22T09:41:49.655Z,11.43
2019-05-22T09:44:19.784Z,11.47
2019-05-22T09:46:49.749Z,11.49
2019-05-22T09:49:23.625Z,11.58
2019-05-22T09:51:51.541Z,11.69
2019-05-22T09:54:22.106Z,11.63
2019-05-22T09:56:51.965Z,11.61
2019-05-22T09:59:21.670Z,11.67
2019-05-22T10:01:51.383Z,11.75
2019-05-22T10:04:21.909Z,11.76
2019-05-22T10:06:52.035Z,11.73
2019-05-22T10:09:21.975Z,11.69
2019-05-22T10:11:51.782Z,11.81
2019-05-22T10:14:22.018Z,11.77
2019-05-22T10:16:52.168Z,11.84
2019-05-22T10:19:22.201Z,11.99
2019-05-22T10:21:53.106Z,12.18
2019-05-22T10:24:22.898Z,12.16
2019-05-22T10:26:53.132Z,12.11
2019-05-22T10:29:23.053Z,11.87
2019-05-22T10:31:52.982Z,12.00
2019-05-22T10:34:22.764Z,12.09
2019-05-22T10:36:52.551Z,11.94
2019-05-22T10:39:24.864Z,12.10
2019-05-22T10:41:54.839Z,11.91
2019-05-22T10:44:24.760Z,12.04
2019-05-22T10:46:54.588Z,12.13
2019-05-22T10:49:24.323Z,12.31
2019-05-22T10:51:54.123Z,12.39
2019-05-22T10:54:23.892Z,12.41
2019-05-22T10:56:53.806Z,12.28
2019-05-22T10:59:24.059Z,12.45
2019-05-22T11:01:53.892Z,12.38
2019-05-22T11:04:24.679Z,12.35
2019-05-22T11:06:56.204Z,12.28
2019-05-22T11:09:28.299Z,12.26
2019-05-22T11:11:58.120Z,12.22
2019-05-22T11:14:28.346Z,12.09
2019-05-22T11:17:01.344Z,12.17
2019-05-22T11:19:31.342Z,12.20
2019-05-22T11:22:01.654Z,12.13
2019-05-22T11:24:31.764Z,12.21
2019-05-22T11:27:02.211Z,12.31
2019-05-22T11:29:32.074Z,12.46
2019-05-22T11:32:01.903Z,12.72
2019-05-22T11:34:31.901Z,12.75
2019-05-22T11:37:01.661Z,12.96
2019-05-22T11:39:39.450Z,12.65
2019-05-22T11:42:05.919Z,12.71
2019-05-22T11:44:35.931Z,12.69
2019-05-22T11:47:09.351Z,12.68
2019-05-22T11:49:40.021Z,12.69
2019-05-22T11:52:10.908Z,12.54
2019-05-22T11:54:40.823Z,12.45
2019-05-22T11:57:12.051Z,12.58
2019-05-22T11:59:42.722Z,12.61
2019-05-22T12:02:13.418Z,12.71
2019-05-22T12:04:47.990Z,12.72
2019-05-22T12:07:15.744Z,12.47
2019-05-22T12:09:45.581Z,12.51
2019-05-22T12:12:16.419Z,12.48
2019-05-22T12:14:46.429Z,12.39
2019-05-22T12:17:16.418Z,12.37
2019-05-22T12:19:46.497Z,12.52
2019-05-22T12:22:19.801Z,12.57
2019-05-22T12:24:48.723Z,12.82
2019-05-22T12:27:18.507Z,13.06
2019-05-22T12:29:49.806Z,13.19
2019-05-22T12:32:20.641Z,12.88
2019-05-22T12:34:50.423Z,12.90
2019-05-22T12:37:20.448Z,13.02
2019-05-22T12:39:50.534Z,13.07
2019-05-22T12:42:20.887Z,13.30
2019-05-22T12:44:51.016Z,13.17
2019-05-22T12:47:22.082Z,13.49
2019-05-22T12:49:52.840Z,13.76
2019-05-22T12:52:22.576Z,13.83
2019-05-22T12:54:53.433Z,13.78
2019-05-22T12:57:24.951Z,13.62
2019-05-22T12:59:56.042Z,13.77
2019-05-22T13:02:26.728Z,13.77
2019-05-22T13:04:57.959Z,13.84
2019-05-22T13:07:28.527Z,13.70
2019-05-22T13:09:58.690Z,13.48
2019-05-22T13:12:28.525Z,13.34
2019-05-22T13:15:09.183Z,13.50
2019-05-22T13:17:31.350Z,13.48
2019-05-22T13:20:03.172Z,13.65
2019-05-22T13:22:34.666Z,13.63
2019-05-22T13:25:09.520Z,13.61
2019-05-22T13:27:39.903Z,13.32
2019-05-22T13:30:13.099Z,13.29
2019-05-22T13:32:44.685Z,13.34
2019-05-22T13:35:17.852Z,13.32
2019-05-22T13:37:47.990Z,13.53
2019-05-22T13:40:27.612Z,13.61
2019-05-22T13:42:50.510Z,13.69
2019-05-22T13:45:29.303Z,13.58
2019-05-22T13:47:54.125Z,13.42
2019-05-22T13:50:28.292Z,13.53
2019-05-22T13:52:56.272Z,13.68
2019-05-22T13:55:26.651Z,13.63
2019-05-22T13:57:58.241Z,13.95
2019-05-22T14:00:30.903Z,14.03
2019-05-22T14:03:00.394Z,14.08
2019-05-22T14:05:31.128Z,14.22
2019-05-22T14:08:01.542Z,14.10
2019-05-22T14:10:34.083Z,14.83
2019-05-22T14:13:04.487Z,14.58
2019-05-22T14:15:48.829Z,14.93
2019-05-22T14:18:06.593Z,15.20
2019-05-22T14:20:37.738Z,15.29
2019-05-22T14:23:07.722Z,15.34
2019-05-22T14:25:37.885Z,15.61
2019-05-22T14:28:08.773Z,15.65
2019-05-22T14:30:39.060Z,15.06
2019-05-22T14:33:09.234Z,15.09
2019-05-22T14:35:48.461Z,14.99
2019-05-22T14:38:12.908Z,14.71
2019-05-22T14:40:43.217Z,15.33
2019-05-22T14:43:13.498Z,16.03
2019-05-22T14:45:43.726Z,16.03
2019-05-22T14:48:14.955Z,16.00
2019-05-22T14:50:45.565Z,15.73
2019-05-22T14:53:15.851Z,15.80
2019-05-22T14:55:47.243Z,16.08
2019-05-22T14:58:17.925Z,15.71
2019-05-22T15:00:48.098Z,15.69
2019-05-22T15:03:19.640Z,15.87
2019-05-22T15:05:50.402Z,15.91
2019-05-22T15:08:20.258Z,16.05
2019-05-22T15:10:50.438Z,15.83
2019-05-22T15:13:20.412Z,15.90
2019-05-22T15:15:50.403Z,15.67
2019-05-22T15:18:20.257Z,15.55
2019-05-22T15:20:58.693Z,15.33
2019-05-22T15:23:28.812Z,15.50
2019-05-22T15:26:00.109Z,15.68
2019-05-22T15:28:31.025Z,15.42
2019-05-22T15:31:02.013Z,15.32
2019-05-22T15:33:32.971Z,15.05
2019-05-22T15:36:06.973Z,15.22
2019-05-22T15:38:39.872Z,15.65
2019-05-22T15:41:11.128Z,15.58
2019-05-22T15:43:44.701Z,15.30
2019-05-22T15:46:15.659Z,15.28
2019-05-22T15:48:47.544Z,15.33
2019-05-22T15:51:21.205Z,15.37
2019-05-22T15:53:52.466Z,15.22
2019-05-22T15:56:23.632Z,15.06
2019-05-22T15:58:55.637Z,15.04
2019-05-22T16:01:26.580Z,15.33
2019-05-22T16:03:58.127Z,15.22
2019-05-22T16:06:30.693Z,15.39
2019-05-22T16:09:02.240Z,15.27
2019-05-22T16:11:34.354Z,15.19
2019-05-22T16:14:05.258Z,15.16
2019-05-22T16:16:36.570Z,15.21
2019-05-22T16:19:09.155Z,15.38
2019-05-22T16:21:42.106Z,15.26
2019-05-22T16:24:13.693Z,15.13
2019-05-22T16:26:47.329Z,15.03
2019-05-22T16:32:47.670Z,15.05
2019-05-22T16:35:27.238Z,14.79
2019-05-22T16:38:04.502Z,14.55
2019-05-22T16:40:39.687Z,14.78
2019-05-22T16:43:14.916Z,14.78
2019-05-22T16:45:45.109Z,15.01
2019-05-22T16:48:28.598Z,14.79
2019-05-22T16:50:48.376Z,14.74
2019-05-22T16:53:19.429Z,14.54
2019-05-22T16:55:49.897Z,14.35
2019-05-22T16:58:20.857Z,14.47
2019-05-22T17:00:51.055Z,14.38
2019-05-22T17:03:21.736Z,14.28
2019-05-22T17:05:51.572Z,14.17
2019-05-22T17:08:22.686Z,14.05
2019-05-22T17:10:53.221Z,14.03
2019-05-22T17:13:23.728Z,14.38
2019-05-22T17:15:53.951Z,14.30
2019-05-22T17:18:24.578Z,14.32
2019-05-22T17:20:55.904Z,14.35
2019-05-22T17:23:26.509Z,14.24
2019-05-22T17:25:58.279Z,14.13
2019-05-22T17:28:29.310Z,14.01
2019-05-22T17:30:59.958Z,13.93
2019-05-22T17:33:31.635Z,13.97
2019-05-22T17:36:05.378Z,13.84
2019-05-22T17:38:34.394Z,13.80
2019-05-22T17:41:05.134Z,13.74
2019-05-22T17:43:36.656Z,13.69
2019-05-22T17:46:06.851Z,13.76
2019-05-22T17:48:38.203Z,13.68
2019-05-22T17:51:08.320Z,13.57
2019-05-22T17:53:38.150Z,13.27
2019-05-22T17:56:08.011Z,13.12
2019-05-22T17:58:38.406Z,13.05
2019-05-22T18:01:09.322Z,12.93
2019-05-22T18:03:39.274Z,13.11
2019-05-22T18:06:09.618Z,13.28
2019-05-22T18:08:39.769Z,13.38
2019-05-22T18:11:10.789Z,13.35
2019-05-22T18:14:00.892Z,13.26
2019-05-22T18:16:32.457Z,13.03
2019-05-22T18:19:02.816Z,12.81
2019-05-22T18:21:33.909Z,12.97
2019-05-22T18:24:04.335Z,12.93
2019-05-22T18:26:34.487Z,12.87
2019-05-22T18:29:04.590Z,12.76
2019-05-22T18:31:34.736Z,12.72
2019-05-22T18:34:04.683Z,12.64
2019-05-22T18:36:34.594Z,12.53
2019-05-22T18:39:06.698Z,12.59
2019-05-22T18:41:36.400Z,12.55
2019-05-22T18:44:06.698Z,12.61
2019-05-22T18:46:36.594Z,12.58
2019-05-22T18:49:06.348Z,12.58
2019-05-22T18:51:36.178Z,12.45
2019-05-22T18:54:05.994Z,12.44
2019-05-22T18:56:35.939Z,12.41
2019-05-22T18:59:05.855Z,12.31
2019-05-22T19:01:35.707Z,12.27
2019-05-22T19:04:05.744Z,12.14
2019-05-22T19:06:35.951Z,12.05
2019-05-22T19:09:08.686Z,11.96
2019-05-22T19:11:38.875Z,11.92
2019-05-22T19:14:09.228Z,11.83
2019-05-22T19:16:39.154Z,11.78
2019-05-22T19:19:09.304Z,11.68
2019-05-22T19:21:39.173Z,11.66
2019-05-22T19:24:09.202Z,11.48
2019-05-22T19:26:39.342Z,11.40
2019-05-22T19:29:09.785Z,11.41
2019-05-22T19:31:39.621Z,11.30
2019-05-22T19:34:11.184Z,11.34
2019-05-22T19:36:42.758Z,11.41
2019-05-22T19:39:15.812Z,11.36
2019-05-22T19:41:59.890Z,11.31
2019-05-22T19:44:17.933Z,11.32
2019-05-22T19:46:48.444Z,11.25
2019-05-22T19:49:24.425Z,11.29
2019-05-22T19:51:56.251Z,11.33
2019-05-22T19:54:26.882Z,11.36
2019-05-22T19:56:57.500Z,11.38
2019-05-22T19:59:27.350Z,11.44
2019-05-22T20:01:57.714Z,11.45
2019-05-22T20:04:28.347Z,11.48
2019-05-22T20:07:09.794Z,11.48
2019-05-22T20:09:45.024Z,11.50
2019-05-22T20:12:19.412Z,11.47
2019-05-22T20:14:50.356Z,11.50
2019-05-22T20:17:20.375Z,11.46
2019-05-22T20:19:53.855Z,11.48
2019-05-22T20:22:22.809Z,11.48
2019-05-22T20:24:53.429Z,11.43
2019-05-22T20:27:24.168Z,11.45
2019-05-22T20:29:54.238Z,11.44
2019-05-22T20:32:24.135Z,11.40
2019-05-22T20:34:54.810Z,11.40
2019-05-22T20:37:24.570Z,11.38
2019-05-22T20:39:54.503Z,11.35
2019-05-22T20:42:24.652Z,11.30
2019-05-22T20:44:54.718Z,11.28
2019-05-22T20:47:26.995Z,11.23
2019-05-22T20:49:57.585Z,11.23
2019-05-22T20:52:30.244Z,11.23
2019-05-22T20:55:02.444Z,11.18
2019-05-22T20:57:33.684Z,11.10
2019-05-22T21:00:06.775Z,10.97
2019-05-22T21:02:40.179Z,10.86
2019-05-22T21:05:13.324Z,10.77
2019-05-22T21:07:49.173Z,10.71
2019-05-22T21:10:23.422Z,10.63
2019-05-22T21:12:54.560Z,10.60
2019-05-22T21:15:24.731Z,10.55
2019-05-22T21:17:56.284Z,10.47
2019-05-22T21:20:28.205Z,10.42
2019-05-22T21:22:59.245Z,10.32
2019-05-22T21:25:29.510Z,10.22
2019-05-22T21:27:59.461Z,10.12
2019-05-22T21:30:29.585Z,10.05
2019-05-22T21:33:00.011Z,9.95
2019-05-22T21:35:30.029Z,9.84
2019-05-22T21:37:59.914Z,9.77
2019-05-22T21:40:29.660Z,9.68
2019-05-22T21:43:00.924Z,9.65
2019-05-22T21:45:31.350Z,9.60
2019-05-22T21:48:01.278Z,9.54
2019-05-22T21:50:32.267Z,9.47
2019-05-22T21:53:03.120Z,9.42
2019-05-22T21:55:33.294Z,9.29
2019-05-22T21:58:04.779Z,9.27
2019-05-22T22:00:42.190Z,9.26
2019-05-22T22:03:19.689Z,9.22
2019-05-22T22:05:50.295Z,9.17
2019-05-22T22:08:20.828Z,9.08
2019-05-22T22:10:51.378Z,9.06
2019-05-22T22:13:21.295Z,9.07
2019-05-22T22:15:51.575Z,9.06
2019-05-22T22:18:24.628Z,9.11
2019-05-22T22:20:53.926Z,9.03
2019-05-22T22:23:25.321Z,8.96
2019-05-22T22:25:55.362Z,9.05
2019-05-22T22:28:25.897Z,8.90
2019-05-22T22:31:10.370Z,8.97
2019-05-22T22:33:42.413Z,8.94
2019-05-22T22:36:12.431Z,8.96
2019-05-22T22:38:43.803Z,8.97
2019-05-22T22:41:14.177Z,9.00
2019-05-22T22:43:48.614Z,9.06
2019-05-22T22:46:31.886Z,9.07
2019-05-22T22:49:03.403Z,9.13
2019-05-22T22:51:35.225Z,9.19
2019-05-22T22:54:06.922Z,9.31
2019-05-22T22:56:37.667Z,9.17
2019-05-22T22:59:08.260Z,9.04
2019-05-22T23:01:41.455Z,9.05
2019-05-22T23:04:12.614Z,8.89
2019-05-22T23:06:43.017Z,8.92
2019-05-22T23:09:12.872Z,8.84
2019-05-22T23:11:43.508Z,8.69
2019-05-22T23:14:15.691Z,8.64
2019-05-22T23:16:46.193Z,8.47
2019-05-22T23:19:21.707Z,8.43
2019-05-22T23:21:50.432Z,8.50
2019-05-22T23:24:20.782Z,8.54
2019-05-22T23:26:51.944Z,8.50
2019-05-22T23:29:22.495Z,8.49
2019-05-22T23:31:54.523Z,8.46
2019-05-22T23:34:24.604Z,8.43
2019-05-22T23:36:55.469Z,8.40
2019-05-22T23:39:25.522Z,8.34
2019-05-22T23:41:57.322Z,8.44
2019-05-22T23:44:28.435Z,8.33
2019-05-22T23:47:01.538Z,8.27
2019-05-22T23:49:33.882Z,8.20
2019-05-22T23:52:04.368Z,8.19
2019-05-22T23:54:35.024Z,7.96
2019-05-22T23:57:06.006Z,7.95
2019-05-22T23:59:36.739Z,7.92
